Leroy, North Dakota
Current Conditions -  °F | °C
As of 6:35 PM on Tuesday 25 Nov 2014 (Local Time) from K2C8 Reporting Station
Light Snow Light Snow  
Wind Chill:   Ceiling: 100
Heat Index: 14°   Visibility: 1.5mi
Dew Point: 10°   Wind: 12mph
Humidity: 86%   Direction: 20°NNE
Pressure: 30.06"   Gusts: NA
Location:  48.9026°N, 97.8187°W
Report Text: K2C8 260035Z AUTO 02010KT 1 1/2SM -SN BKN001 OVC012 M10/M12 A3006 RMK AO2 P0011
Loading
Personal Weather Stations






























Interactive Weather Map New forecast layout! Learn more

10-Day Weather Forecast

Advertisements
Track Severe Weather on mobile